今日のアクセス数

    岡山グライダークラブ活動状況掲示板あなたは無料カウンター人目の訪問者です

岡山グライダークラブ
岡山市浦安南町639-1 岡南飛行場
 使用機:シャイベ式 SF25C型 ファルケ   JA2330
      ヴァレンティン式17E型 タイフーン  JA2342
 練習日:毎日曜日  クラブルーム:電話 086-265-1810
この掲示板は岡山グライダークラブの活動状況をお知らせする掲示板です。
!!!この掲示板は投稿規制をしています。!!!
クラブ関連各種情報は 岡山グライダークラブクラブルーム      を       .
  ブリーフイング情報は  岡山グライダークラブブリーフィングルーム  をご覧下さい。 .
※写真はクリックすると拡大して見ることが出来ます。
岡南飛行場へのアクセス等は 岡南飛行場管理事務所 をご覧ください。
クラブの ホームページ ができました。

ページ 1 (1〜10)ホームページへ戻る

11月17日
by OGC at 2019/11/17(日) 20:38:25 No.20191117203436 コメント】  削除 引用
1024 x 768 x 117,567バイト
No.1

11月17日
本日の参加者
  会員      16名
  その他      0名


@本日の様子




METAR
RJBK 162300Z VRB02KT 25KM FEW020CU SCT070AC BKN/// 9/8 Q1024 A3025
RJOB 162300Z VRB02KT 9999 FEW020 SCT050 BKN/// 11/09 Q1023
RJOT 162300Z 14008KT 9999 FEW025 SCT/// 11/09 Q1024
RJOA 162300Z 00000KT 9999 BCFG FEW000 SCT/// 12/07 Q1023
TAF
RJOB 162308Z 1700/1806 12005KT 9999 FEW020
       BECMG 1800/1803 21008KT
RJOT 162308Z 1700/1806 06006KT 9999 FEW025
       BECMG 1721/1800 24009KT
RJOA 162306Z 1700/1806 14006KT 9999 FEW020
       BECMG 1721/1800 21010KT

本日、岡南飛行場祭りでデモフライト、機体展示を行い、多くの来場者の方に喜んで頂けました。たぶん...
祭り後、いつもの訓練フライトを手短に行い、またまた、日没ギリギリまで飛んでしまいました。

解散    17:20

1番機  09:50離陸 撤収機  16:55着陸 

SF25C JA2330 ファルケ     06Flt.1h35min  
17E   JA2342 タイフーン    04Flt.1h15min  
合計                    10Flt.2h50min
11月10日
by OGC at 2019/11/10(日) 20:28:01 No.20191110202601 コメント】  削除 引用
1024 x 768 x 83,360バイト
No.1

11月10日
本日の参加者
  会員      15名
  その他      1名


@本日の様子




METAR
RJBK 100000Z 34003KT 290V020 30KM FEW035CU 13/10 Q1018 A3006
RJOB 100000Z 09003KT 010V160 9999 FEW020 13/06 Q1017
RJOT 100000Z 11003KT 020V180 9999 FEW020 SCT030 13/09 Q1017
RJOA 100000Z 07008KT 9999 FEW020 SCT/// 12/03 Q1017
TAF
RJOB 092305Z 1000/1106 06007KT 9999 FEW020
     BECMG 1021/1100 24014KT
RJOT 092308Z 1000/1106 05008KT 9999 FEW025
     BECMG 1021/1100 26017KT
     TEMPO 1100/1106 26020G30KT
RJOA 092306Z 1000/1106 16005KT 9999 FEW025 SCT045
     BECMG 1018/1021 25012KT

本日、地上では岡山マラソンがあり大勢のランナーが吉備路を楽しんでいました。
上空では、ソロ経験者がナビ訓練を開始し、上空での忙しさにビックリしていました。
また、タイフーンは剣山を目指しナビ訓練に出ましたが、剣山がよく分からなかったようです。

解散    17:30

1番機  10:20離陸 撤収機  16:35着陸 

SF25C JA2330 ファルケ     09Flt.3h45min  
17E   JA2342 タイフーン    07Flt.3h35min  
合計                    16Flt.7h20min

11月03日
by OGC at 2019/11/4(月) 00:15:36 No.20191104000939 コメント】  削除 引用
1477 x 1108 x 45,173バイト <この画像は大きいので別画面で表示します>
No.1

11月03日
本日の参加者
  会員      13名
  その他      0名


@本日の様子




METAR
RJBK 030000Z VRB01KT 25KM FEW025CU SCT060SC BKN/// 14/10 Q1017 A3005
RJOB 030000Z VRB01KT 9999 FEW020 BKN160 14/10 Q1017
RJOT 030000Z VRB01KT 9999 FEW030 SCT060 BKN180 16/13 Q1017
RJOA 030000Z VRB02KT 9999 FEW020 SCT170 BKN/// 15/08 Q1018
TAF
RJOB 022312Z 0300/0406 02004KT 9999 FEW025
     BECMG 0300/0302 23005KT
     BECMG 0308/0310 36004KT
RJOT 022309Z 0300/0406 28006KT 9999 FEW030
     BECMG 0321/0400 03005KT
RJOA 022306Z 0300/0406 30005KT 9999 FEW025 SCT040
     BECMG 0315/0318 02006KT

本日は、曇りで雨までは降らないと予想していましたが昼頃から小雨、雨の合間に
何時もの訓練フライトと飛行場祭りのデモフライトの訓練を行いました。
また、最近、日没時間に比例して訓練生が集まる時間も早くなる法則を発見しました。

解散    17:30

1番機  10:15離陸 撤収機  17:05着陸 

SF25C JA2330 ファルケ     09Flt.2h35min  
17E   JA2342 タイフーン    02Flt.0h45min  
合計                    11Flt.3h20min

10月27日
by OGC at 2019/10/27(日) 20:23:45 No.20191027201439 コメント】  削除 引用
1024 x 768 x 71,690バイト
No.1

10月27日
本日の参加者
  会員      13名
  その他      2名


@本日の様子




METAR
RJBK 270000Z VRB02KT 15KM FEW150AC SCT/// 17/15 Q1015 A2998
RJOB 270000Z 32004KT 260V360 8000 FEW005 BKN150 16/12 Q1015
RJOT 270000Z 22005KT 9999 FEW020 SCT045 BKN/// 17/15 Q1015
RJOA 270000Z 30005KT 9999 PRFG FEW000 BKN030 15/11 Q1016
TAF
RJOB 262305Z 2700/2806 29005KT 9999 FEW030
        BECMG 2708/2710 35005KT
RJOT 262306Z 2700/2806 21005KT 9999 FEW020 SCT040
        BECMG 2702/2704 27010KT
        BECMG 2710/2712 21004KT
        BECMG 2800/2803 06005KT
RJOA 262311Z 2700/2806 32006KT 9999 FEW020 SCT035
        BECMG 2718/2721 06005KT

本日は、積雲が沢山でき、みんな、サーマルを探して飛び回っていました。
いつもより訓練生が少なかったこともあり、時間的に余裕があった一日でした。

解散    17:10

1番機  10:50離陸 撤収機  17:05着陸 

SF25C JA2330 ファルケ     09Flt.3h40min  
17E   JA2342 タイフーン    05Flt.2h45min  
合計                    14Flt.6h25min
10月20日
by OGC at 2019/10/20(日) 20:14:10 No.20191020194818 コメント】  削除 引用
1024 x 768 x 72,462バイト
No.1

10月20日
本日の参加者
  会員      14名
  その他      1名


@本日の様子




METAR
RJOB 200000Z 02003KT 350V050 9999 FEW020 BKN/// 17/15 Q1021
RJOT 200000Z VRB02KT 9999 FEW015 BKN/// 18/16 Q1021
RJOA 200000Z 08003KT 360V120 9999 FEW015 BKN/// 17/12 Q1021
TAF
RJOB 192309Z 2000/2106 03008KT 9999 FEW025
RJOT 192306Z 2000/2106 06006KT 9999 FEW020
RJOA 192305Z 2000/2106 03005KT 9999 FEW025

天候は曇り空で始まり、昼頃、積雲が少しでき、天候もよくなってきましたが、今日はトンビが多い一日でした。
ほぼ入会が同じ訓練生2名が、今日、ファーストソロに出て、2人とも満面の笑顔で帰ってきました。(祝)
また、他の訓練生も個々の課題克服のため、がんばっていました。


解散    17:30

1番機  10:30離陸 撤収機  16:45着陸 

SF25C JA2330 ファルケ     12Flt.3h20min  
17E   JA2342 タイフーン    05Flt.2h40min  
合計                    17Flt.6h00min
10月13日
by OGC at 2019/10/13(日) 23:42:21 No.20191013234026 コメント】  削除 引用
1477 x 1108 x 78,424バイト <この画像は大きいので別画面で表示します>
No.1

10月13日
本日の参加者
  会員      15名
  その他      0名


@本日の様子




METAR
RJBK 130000Z 33004KT 280V030 25KM FEW025CU SCT035CU 21/11 Q1017 A3005
RJOB 130000Z 01011KT 340V040 9999 FEW025 19/11 Q1017
RJOT 130000Z 28005KT 240V330 9999 FEW025 19/10 Q1018
RJOA 130000Z 03010KT 340V060 9999 FEW015 SCT025 17/06 Q1018
TAF
RJOB 122311Z 1300/1406 01014KT 9999 FEW030
         TEMPO 1300/1303 01015G25KT
         BECMG 1310/1312 02004KT
RJOT 22307Z 1300/1406 24005KT 9999 FEW030
         BECMG 1301/1303 06007KT
         BECMG 1315/1318 32005KT
RJOA 122305Z 1300/1406 04010KT 9999 FEW030
         BECMG 1315/1318 35005KT

本日は、心配していた台風19号の影響もほとんどなく、訓練生は高松空港に行って来たり、TGL訓練したり、楽しく訓練していました。
日没が段々と早くなって、今までのように2フライトはできなくなりました。

解散    18:00

1番機  10:30離陸 撤収機  17:25着陸 

SF25C JA2330 ファルケ     09Flt.3h50min  
17E   JA2342 タイフーン    03Flt.1h25min  
合計                    12Flt.5h15min
10月06日
by OGC at 2019/10/6(日) 22:37:17 No.20191006223259 コメント】  削除 引用
1024 x 768 x 88,822バイト
No.1

10月06日
本日の参加者
  会員      14名
  その他      0名


@本日の様子




METAR
RJOB 060000Z 01009KT 340V040 9999 FEW015 SCT025 BKN060 21/16 Q1020
RJOT 060000Z 33005KT 280V030 9999 FEW015 SCT025 BKN040 22/17 Q1020
RJOA 060000Z 36008KT 330V040 9999 FEW015 SCT020 BKN080 20/13 Q1021
TAF
RJOB 052307Z 0600/0706 02010KT 9999 FEW025 BKN045
RJOT 052305Z 0600/0706 30004KT 9999 FEW025 BKN040
         BECMG 0600/0602 06008KT
RJOA 052306Z 0600/0706 08006KT 9999 FEW025 BKN040

本日は、朝、小雨がパラパラしましたが、その後、日差しが差し込み積雲がポコポコと出来、みんな、サーマルを探して飛びまわっていました。

解散    18:00

1番機  11:20離陸 撤収機  17:10着陸 

SF25C JA2330 ファルケ     09Flt.3h45min  
17E   JA2342 タイフーン    03Flt.1h15min  
合計                    12Flt.5h00min

09月29日
by OGC at 2019/9/29(日) 20:30:43 No.20190929202915 コメント】  削除 引用
1024 x 768 x 78,326バイト
No.1

09月29日
本日の参加者
  会員      16名
  その他      1名


@本日の様子




METAR
RJBK 290000Z 36003KT 260V060 20KM FEW020CU SCT030CU BKN080AC 26/21 1016/3002
RJOB 290000Z 08003KT 030V120 9999 FEW015 BKN020 BKN/// 24/20 Q1017
RJOT 290000Z VRB02KT 9999 FEW010 BKN080 25/22 Q1017
RJOA 290000Z VRB02KT 9999 FEW010 SCT015 BKN070 23/19 Q1018
TAF
RJOB 282306Z 2900/3006 09004KT 9999 FEW015 SCT025
         TEMPO 2906/2909 TS FEW008 SCT020 FEW025CB BKN035
RJOT 282308Z 2900/3006 05006KT 9999 FEW025 SCT050
RJOA 282306Z 2900/3006 12004KT 9999 FEW025 SCT040
         TEMPO 2906/2909 TS FEW008 SCT020 FEW025CB BKN030
         BECMG 2909/2911 32005KT
         BECMG 3003/3006 13005KT

風もほとんどなく、本日は絶好の訓練日和。
訓練生は、サーマルトレーニングやTGLを行い、各自、課題の克服に専念し、ライセンサーは、直島方面に出かけたり、サーマルを探してウロチョロしたりしていたようです。


解散    18:00

1番機  10:20離陸 撤収機  17:30着陸 

SF25C JA2330 ファルケ     12Flt.4h25min  
17E   JA2342 タイフーン    05Flt.2h05min  
合計                    17Flt.6h30min
09月22日
by OGC at 2019/9/22(日) 22:32:49 No.20190922222811 コメント】  削除 引用
1024 x 768 x 101,999バイト
No.1

09月22日
本日の参加者
  会員      13名
  その他      0名


@本日の様子




METAR
RJOB 220000Z 07008KT 2500 SHRA BR BCFG FEW000 SCT002 BKN020 20/19 Q1013
RJOT 220000Z 06010KT 1500 R26/1900N +SHRA BR FEW000 SCT002 BKN010 21/21 Q1013
RJOA 220000Z 07016KT 9999 -SHRA BCFG FEW000 SCT002 BKN005 21/19 Q1012
TAF
RJOB 212314Z 2200/2306 08014KT 8000 -SHRA FEW003 SCT008 BKN020
     TEMPO 2200/2206 4000 -SHRA BR FEW003 BKN008 BKN020
     TEMPO 2206/2212 09018G28KT 3000 SHRA BR FEW001 BKN005 BKN008
     BECMG 2218/2221 24015KT
     TEMPO 2221/2300 24018G28KT
RJOT 212305Z 2200/2306 08011KT 9999 FEW015 SCT030 BKN050
     TEMPO 2200/2203 4000 SHRA BR FEW001 BKN005 BKN015
     BECMG 2215/2218 20012KT
     BECMG 2221/2300 26014KT
RJOA 212308Z 2200/2306 09015KT 7000 -SHRA FEW001 SCT008 BKN015
     TEMPO 2200/2202 4000 -SHRA BR BCFG FEW000 SCT003 BKN008
     TEMPO 2202/2211 3000 SHRA BR BCFG FEW000 BKN008 BKN015
     BECMG 2212/2215 15012KT
     BECMG 2215/2218 20016G27KT
     BECMG 2300/2303 27008KT


台風の影響で雨と風、フライトを諦めていると、そこは「晴れの国、岡山」、雨雲が東にそれ部分的に青空がのぞいて来ました。
急いで機体点検を済ませ1フライトした後、また、雨が少し強くなったので格納庫で待機、雨が止むと今度は風の方位が北にズレ待機、クラブルームで気象の講義を行い、本日のフライトを諦めました。

解散    14:40

1番機  12:10離陸 撤収機  12:20着陸 

SF25C JA2330 ファルケ     01Flt.0h10min  
17E   JA2342 タイフーン    00Flt.0h00min  
合計                    01Flt.0h10min
09月15日
by OGC at 2019/9/15(日) 21:01:56 No.20190915205834 コメント】  削除 引用
1024 x 768 x 79,562バイト
No.1

09月15日
本日の参加者
  会員      15名
  その他      0名


@本日の様子




METAR
RJBK 080000Z 11002KT 080V140 30KM FEW015CU SCT025CU 30/24 Q1010 A2983
RJOB 150000Z 09005KT 050V120 9999 FEW015 SCT/// 26/21 Q1010
RJOT 150000Z 05005KT 010V110 9999 FEW015 SCT025 26/22 Q1010
RJOA 150000Z 09006KT 050V120 9999 FEW020 26/18 Q1011
TAF
RJOB 142305Z 1500/1606 08006KT 9999 FEW025
RJOT 142306Z 1500/1606 06006KT 9999 FEW030 SCT050
RJOA 142305Z 1500/1606 13006KT 9999 FEW030 SCT045


風がほとんどないソロ日和、訓練生はTGLの練習に汗を流し、本日1名が初ソロを達成しました。パチパチ(^_^)v
一方、タイフーンは尾道、宇多津へのNAVや孫を乗せてNAVに出たり、サーマルを探してウロチョロしていました。


解散    18:00

1番機  10:20離陸 撤収機  17:20着陸 

SF25C JA2330 ファルケ     13Flt.3h55min  
17E   JA2342 タイフーン    05Flt.3h20min  
合計                    18Flt.7h15min
ホームページへ 全 50 件 [ 1 2 3 4 5 ]

モータースポーツ | 管理者へメール | お知らせ | 一括削除
携帯から使う方法 | ヘルプ | 利用規約 | 違反報告 | 管理パネル



- 無料レンタル掲示板 -